Time;durP1;ratioP1;P1;durP2;ratioP2;P2;SDS_P1;SDS_P2;PMS_P1;PMS_P2;Temp;Humidity;BMP_temperature;BMP_pressure;BME280_temperature;BME280_humidity;BME280_pressure;Samples;Min_cycle;Max_cycle;Signal;HPM_P1;HPM_P2
2023/04/27 00:01:33;;;;;;;11.33;7.57;;;6.90;42.70;;;;;;5112600;28;20448;-71
2023/04/27 00:03:59;;;;;;;17.40;8.77;;;6.90;42.20;;;;;;5113275;28;20384;-73
2023/04/27 00:06:26;;;;;;;13.30;8.73;;;6.80;42.60;;;;;;5113430;28;20385;-73
2023/04/27 00:08:51;;;;;;;15.68;8.00;;;6.80;43.20;;;;;;5114049;28;20741;-73
2023/04/27 00:11:17;;;;;;;16.80;8.80;;;6.80;43.60;;;;;;5113387;28;20384;-73
2023/04/27 00:13:42;;;;;;;16.17;8.30;;;6.60;44.10;;;;;;5113132;28;20392;-73
2023/04/27 00:16:08;;;;;;;18.80;8.07;;;6.50;44.80;;;;;;5113308;28;20403;-74
2023/04/27 00:18:34;;;;;;;17.20;8.63;;;6.50;45.60;;;;;;5094494;28;20479;-74
2023/04/27 00:20:59;;;;;;;19.30;8.33;;;6.50;45.70;;;;;;5112901;28;20396;-73
2023/04/27 00:23:26;;;;;;;17.75;8.38;;;6.40;46.30;;;;;;5112917;28;20415;-73
2023/04/27 00:25:52;;;;;;;13.98;7.68;;;6.50;45.70;;;;;;5094393;28;20424;-74
2023/04/27 00:28:17;;;;;;;13.87;8.07;;;6.50;45.40;;;;;;5112783;28;20450;-73
2023/04/27 00:30:43;;;;;;;17.87;8.63;;;6.50;44.90;;;;;;5094887;28;20376;-73
2023/04/27 00:33:09;;;;;;;16.35;8.38;;;6.40;45.90;;;;;;5112251;28;20410;-74
2023/04/27 00:35:35;;;;;;;15.52;8.13;;;6.30;46.90;;;;;;5113096;28;20806;-74
2023/04/27 00:38:00;;;;;;;13.20;8.27;;;6.30;46.90;;;;;;5112569;28;20388;-73
2023/04/27 00:40:26;;;;;;;14.73;8.33;;;6.20;47.10;;;;;;5112794;28;20433;-73
2023/04/27 00:42:51;;;;;;;17.10;8.20;;;6.30;46.40;;;;;;5112287;28;20403;-72
2023/04/27 00:45:17;;;;;;;16.30;8.33;;;6.30;45.80;;;;;;5112457;28;20431;-72
2023/04/27 00:47:43;;;;;;;17.17;8.70;;;6.30;46.20;;;;;;5112658;28;20384;-73
2023/04/27 00:50:10;;;;;;;15.57;8.63;;;6.30;46.70;;;;;;5112442;28;20392;-73
2023/04/27 00:52:36;;;;;;;16.30;8.32;;;6.10;48.30;;;;;;5111764;28;20470;-72
2023/04/27 00:55:03;;;;;;;17.70;8.40;;;6.10;48.60;;;;;;5112376;28;20526;-72
2023/04/27 00:57:29;;;;;;;19.35;8.07;;;6.20;48.40;;;;;;5111864;28;20529;-72
2023/04/27 00:59:55;;;;;;;13.52;7.68;;;6.20;48.10;;;;;;5112894;28;20862;-73
2023/04/27 01:02:21;;;;;;;14.30;7.80;;;6.20;48.10;;;;;;5112107;28;20414;-73
2023/04/27 01:04:49;;;;;;;14.45;8.40;;;6.20;48.80;;;;;;5093938;28;20389;-74
2023/04/27 01:07:15;;;;;;;12.80;8.07;;;6.10;49.40;;;;;;5093823;28;20381;-74
2023/04/27 01:09:41;;;;;;;15.50;8.30;;;6.10;50.30;;;;;;5112960;28;20388;-73
2023/04/27 01:12:07;;;;;;;16.45;8.63;;;6.10;52.20;;;;;;5112382;28;20419;-71
2023/04/27 01:14:32;;;;;;;17.23;9.43;;;6.00;53.70;;;;;;5112741;28;20402;-72
2023/04/27 01:16:58;;;;;;;15.10;8.80;;;6.00;55.00;;;;;;5116404;28;20869;-72
2023/04/27 01:19:24;;;;;;;14.20;9.40;;;5.90;56.00;;;;;;5119226;28;20388;-74
2023/04/27 01:21:49;;;;;;;12.93;8.27;;;5.90;55.80;;;;;;5098849;28;20426;-74
2023/04/27 01:24:15;;;;;;;16.63;8.83;;;5.90;55.10;;;;;;5100378;28;20396;-73
2023/04/27 01:26:41;;;;;;;17.52;8.45;;;5.80;55.60;;;;;;5119504;28;20868;-73
2023/04/27 01:29:06;;;;;;;15.25;8.63;;;5.80;55.30;;;;;;5119795;28;20400;-72
2023/04/27 01:31:32;;;;;;;15.60;9.40;;;5.70;55.40;;;;;;5119184;28;20507;-74
2023/04/27 01:33:57;;;;;;;14.70;8.60;;;5.70;55.50;;;;;;5104620;28;20400;-74
2023/04/27 01:36:23;;;;;;;18.40;9.27;;;5.60;56.50;;;;;;5119248;28;20388;-74
2023/04/27 01:38:48;;;;;;;17.73;9.10;;;5.60;56.00;;;;;;5121161;28;20400;-74
2023/04/27 01:41:14;;;;;;;17.77;9.00;;;5.60;55.80;;;;;;5119823;28;20923;-71
2023/04/27 01:43:41;;;;;;;18.17;8.50;;;5.50;55.40;;;;;;5112954;28;20412;-73
2023/04/27 01:46:09;;;;;;;15.88;9.70;;;5.50;55.80;;;;;;5112578;28;20762;-73
2023/04/27 01:48:35;;;;;;;18.23;9.73;;;5.50;56.00;;;;;;5112146;28;20789;-72
2023/04/27 01:51:01;;;;;;;17.23;10.15;;;5.50;56.10;;;;;;5111627;28;20387;-73
2023/04/27 01:53:26;;;;;;;15.60;9.23;;;5.50;56.40;;;;;;5077052;28;20396;-73
2023/04/27 01:55:52;;;;;;;18.30;9.23;;;5.40;56.70;;;;;;5112447;28;20379;-73
2023/04/27 01:58:17;;;;;;;15.20;9.18;;;5.40;57.70;;;;;;5111604;28;20392;-73
2023/04/27 02:00:43;;;;;;;18.63;10.13;;;5.40;58.20;;;;;;5112874;28;20802;-72
2023/04/27 02:03:08;;;;;;;16.88;10.45;;;5.30;58.20;;;;;;5114804;28;20885;-74
2023/04/27 02:05:34;;;;;;;16.47;9.37;;;5.30;58.30;;;;;;5121431;28;20880;-72
2023/04/27 02:08:00;;;;;;;17.80;9.60;;;5.30;58.40;;;;;;5128461;28;20384;-74
2023/04/27 02:10:26;;;;;;;17.48;9.70;;;5.20;58.30;;;;;;5118380;28;20912;-72
2023/04/27 02:12:51;;;;;;;21.75;10.52;;;5.20;59.20;;;;;;5115201;28;20883;-73
2023/04/27 02:15:17;;;;;;;16.15;10.30;;;5.10;60.00;;;;;;5115785;28;20396;-73
2023/04/27 02:17:42;;;;;;;19.10;10.20;;;5.10;60.80;;;;;;5097784;28;20881;-73
2023/04/27 02:20:09;;;;;;;16.30;10.30;;;5.10;61.60;;;;;;5115301;28;20430;-73
2023/04/27 02:22:35;;;;;;;17.58;9.93;;;5.10;62.00;;;;;;5096357;28;20454;-72
2023/04/27 02:25:01;;;;;;;18.17;10.55;;;5.10;62.20;;;;;;5115346;28;20388;-72
2023/04/27 02:27:27;;;;;;;15.05;10.23;;;5.00;62.10;;;;;;5115255;28;20452;-73
2023/04/27 02:29:52;;;;;;;23.27;10.20;;;5.00;62.30;;;;;;5118216;28;20445;-73
2023/04/27 02:32:18;;;;;;;16.07;10.00;;;5.00;62.40;;;;;;5124517;28;20836;-73
2023/04/27 02:34:44;;;;;;;17.77;10.90;;;4.90;62.20;;;;;;5099094;28;20827;-74
2023/04/27 02:37:09;;;;;;;25.42;11.25;;;4.90;62.70;;;;;;5108730;28;20398;-73
2023/04/27 02:39:35;;;;;;;17.27;9.95;;;4.90;63.20;;;;;;5124585;28;20423;-73
2023/04/27 02:42:02;;;;;;;20.20;10.20;;;4.70;64.70;;;;;;5100605;28;20408;-73
2023/04/27 02:44:28;;;;;;;20.38;10.27;;;4.70;64.30;;;;;;5114783;28;20384;-73
2023/04/27 02:46:53;;;;;;;17.13;9.70;;;4.70;65.00;;;;;;5115171;28;20392;-72
2023/04/27 02:49:19;;;;;;;17.73;10.17;;;4.70;64.90;;;;;;5115041;28;20453;-73
2023/04/27 02:51:45;;;;;;;20.20;10.80;;;4.60;65.60;;;;;;5114874;28;20872;-72
2023/04/27 02:54:11;;;;;;;19.50;9.90;;;4.80;63.60;;;;;;5115092;28;20463;-72
2023/04/27 02:56:36;;;;;;;20.42;9.95;;;4.90;61.30;;;;;;5114584;28;20444;-73
2023/04/27 02:59:02;;;;;;;18.23;9.97;;;4.90;60.10;;;;;;5115177;28;20473;-73
2023/04/27 03:01:28;;;;;;;21.95;10.07;;;4.90;60.20;;;;;;5114642;28;20872;-74
2023/04/27 03:03:54;;;;;;;16.90;9.90;;;4.80;60.60;;;;;;5115440;28;20579;-74
2023/04/27 03:06:19;;;;;;;19.47;10.13;;;4.80;60.60;;;;;;5116025;28;20417;-74
2023/04/27 03:08:45;;;;;;;23.42;9.93;;;4.80;61.00;;;;;;5115652;28;20380;-73
2023/04/27 03:11:11;;;;;;;16.27;10.00;;;4.80;61.60;;;;;;5096126;28;20392;-74
2023/04/27 03:13:43;;;;;;;20.17;9.43;;;4.80;61.50;;;;;;5132378;28;20878;-74
2023/04/27 03:16:10;;;;;;;22.40;10.37;;;4.80;61.30;;;;;;5117535;28;20488;-74
2023/04/27 03:18:36;;;;;;;22.13;10.00;;;4.80;61.10;;;;;;5117157;28;20434;-74
2023/04/27 03:21:08;;;;;;;17.50;10.20;;;4.80;61.10;;;;;;5113695;28;20452;-72
2023/04/27 03:23:34;;;;;;;18.38;9.52;;;4.70;61.40;;;;;;5113311;28;20753;-73
2023/04/27 03:26:00;;;;;;;20.30;11.17;;;4.70;60.80;;;;;;5112480;28;20380;-74
2023/04/27 03:28:25;;;;;;;20.00;12.23;;;4.70;61.30;;;;;;5113036;28;20384;-73
2023/04/27 03:30:51;;;;;;;19.65;11.45;;;4.70;61.70;;;;;;5094592;28;20787;-73
2023/04/27 03:33:17;;;;;;;19.30;11.20;;;4.70;61.90;;;;;;5113242;28;20384;-74
2023/04/27 03:35:43;;;;;;;22.52;11.05;;;4.60;61.80;;;;;;5094990;28;20741;-72
2023/04/27 03:38:08;;;;;;;16.33;11.10;;;4.60;62.70;;;;;;5113305;28;20476;-72
2023/04/27 03:40:34;;;;;;;21.90;11.13;;;4.60;62.90;;;;;;5113487;28;20880;-73
2023/04/27 03:42:59;;;;;;;20.97;11.33;;;4.50;63.80;;;;;;5112738;28;20427;-73
2023/04/27 03:45:25;;;;;;;22.77;11.00;;;4.60;63.80;;;;;;5113105;28;20416;-72
2023/04/27 03:47:50;;;;;;;22.00;10.80;;;4.60;63.50;;;;;;5113940;28;20437;-72
2023/04/27 03:50:16;;;;;;;23.60;11.40;;;4.50;64.40;;;;;;5115797;28;20468;-74
2023/04/27 03:52:42;;;;;;;27.00;11.40;;;4.60;63.90;;;;;;5112982;28;20395;-73
2023/04/27 03:55:07;;;;;;;38.78;12.25;;;4.60;64.00;;;;;;5113573;28;20467;-74
2023/04/27 03:57:33;;;;;;;28.75;11.68;;;4.60;63.70;;;;;;5113616;28;20395;-73
2023/04/27 03:59:59;;;;;;;19.50;10.70;;;4.60;63.80;;;;;;5113643;28;20903;-74
2023/04/27 04:02:24;;;;;;;24.10;10.70;;;4.60;64.10;;;;;;5113571;28;20464;-74
2023/04/27 04:04:50;;;;;;;18.02;10.13;;;4.60;64.00;;;;;;5115295;28;20859;-74
2023/04/27 04:07:15;;;;;;;21.17;10.77;;;4.70;63.90;;;;;;5115287;28;20749;-74
2023/04/27 04:09:42;;;;;;;20.75;10.85;;;4.70;64.10;;;;;;5113494;28;20426;-73
2023/04/27 04:12:08;;;;;;;24.10;11.55;;;4.60;64.50;;;;;;5112553;28;20760;-72
2023/04/27 04:14:33;;;;;;;25.93;11.10;;;4.60;65.40;;;;;;5115225;28;20404;-73
2023/04/27 04:16:59;;;;;;;20.70;11.20;;;4.60;64.90;;;;;;5116861;28;20396;-74
2023/04/27 04:19:24;;;;;;;20.63;11.27;;;4.60;64.70;;;;;;5116669;28;20404;-74
2023/04/27 04:21:50;;;;;;;25.73;11.50;;;4.70;64.50;;;;;;5115717;28;20452;-74
2023/04/27 04:24:15;;;;;;;19.77;11.38;;;4.70;64.60;;;;;;5116147;28;20387;-74
2023/04/27 04:26:41;;;;;;;21.15;11.40;;;4.70;64.60;;;;;;5097014;28;20401;-75
2023/04/27 04:29:06;;;;;;;26.80;12.50;;;4.60;65.30;;;;;;5113754;28;20429;-73
2023/04/27 04:31:32;;;;;;;22.03;12.23;;;4.70;65.40;;;;;;5112713;28;20529;-73
2023/04/27 04:34:00;;;;;;;20.80;12.00;;;4.60;65.90;;;;;;5111952;28;20380;-74
2023/04/27 04:36:26;;;;;;;22.25;11.40;;;4.70;65.30;;;;;;5111965;28;20392;-74
2023/04/27 04:38:53;;;;;;;23.70;11.70;;;4.70;66.60;;;;;;5112191;28;20395;-73
2023/04/27 04:41:19;;;;;;;23.90;11.88;;;4.60;67.40;;;;;;5111560;28;20398;-72
2023/04/27 04:43:44;;;;;;;20.03;11.90;;;4.80;65.90;;;;;;5111784;28;20483;-72
2023/04/27 04:46:10;;;;;;;26.33;11.95;;;4.90;65.40;;;;;;5111611;28;20391;-72
2023/04/27 04:48:36;;;;;;;23.70;11.38;;;4.90;66.80;;;;;;5111712;28;20393;-72
2023/04/27 04:51:04;;;;;;;23.13;10.60;;;5.20;63.00;;;;;;5111802;28;20441;-73
2023/04/27 04:53:30;;;;;;;24.70;11.60;;;5.30;61.20;;;;;;5111966;28;20888;-71
2023/04/27 04:55:56;;;;;;;28.53;12.60;;;5.40;59.50;;;;;;5111348;28;20435;-72
2023/04/27 04:58:21;;;;;;;22.20;11.37;;;5.50;57.40;;;;;;5113498;28;20856;-73
2023/04/27 05:00:47;;;;;;;26.85;11.13;;;5.60;57.00;;;;;;5111700;28;20400;-74
2023/04/27 05:03:12;;;;;;;25.33;11.50;;;5.70;56.40;;;;;;5111191;28;20404;-74
2023/04/27 05:05:38;;;;;;;22.02;11.75;;;5.70;56.20;;;;;;5093518;28;20376;-74
2023/04/27 05:08:03;;;;;;;24.92;11.90;;;5.80;55.30;;;;;;5111781;28;20388;-73
2023/04/27 05:10:29;;;;;;;29.38;11.70;;;5.70;56.10;;;;;;5114372;28;20427;-72
2023/04/27 05:12:55;;;;;;;30.40;12.37;;;5.80;55.70;;;;;;5111058;28;20900;-72
2023/04/27 05:15:20;;;;;;;25.97;13.00;;;5.90;54.10;;;;;;5093889;28;20400;-74
2023/04/27 05:17:46;;;;;;;24.23;12.53;;;5.90;54.30;;;;;;5111368;28;20388;-73
2023/04/27 05:20:11;;;;;;;25.33;12.17;;;5.90;53.80;;;;;;5111997;28;20556;-72
2023/04/27 05:22:37;;;;;;;25.35;11.40;;;5.80;56.00;;;;;;5111300;28;20457;-73
2023/04/27 05:25:03;;;;;;;20.08;11.57;;;6.00;54.50;;;;;;5111404;28;20395;-73
2023/04/27 05:27:28;;;;;;;22.23;11.80;;;6.10;54.50;;;;;;5111902;28;20741;-73
2023/04/27 05:29:54;;;;;;;18.93;11.13;;;6.30;52.10;;;;;;5112116;28;20380;-73
2023/04/27 05:32:20;;;;;;;22.47;11.80;;;6.40;51.60;;;;;;5093669;28;20800;-74
2023/04/27 05:34:45;;;;;;;23.80;11.90;;;6.40;51.40;;;;;;5111649;28;20395;-74
2023/04/27 05:37:12;;;;;;;24.33;11.63;;;6.50;49.70;;;;;;5111342;28;20475;-75
2023/04/27 05:39:38;;;;;;;22.33;11.50;;;6.60;49.20;;;;;;5111417;28;20419;-73
2023/04/27 05:42:03;;;;;;;26.10;11.27;;;6.60;49.20;;;;;;5113109;28;20400;-73
2023/04/27 05:44:29;;;;;;;25.83;11.93;;;6.80;47.80;;;;;;5092775;28;20433;-74
2023/04/27 05:46:55;;;;;;;21.75;10.00;;;6.90;45.40;;;;;;5111559;28;20406;-72
2023/04/27 05:49:21;;;;;;;21.02;11.18;;;7.00;46.30;;;;;;5111246;28;20479;-74
2023/04/27 05:51:46;;;;;;;23.10;11.70;;;7.10;46.00;;;;;;5112592;28;20423;-73
2023/04/27 05:54:12;;;;;;;22.77;11.10;;;7.20;46.90;;;;;;5115076;28;20392;-73
2023/04/27 05:56:38;;;;;;;20.03;11.43;;;7.30;46.10;;;;;;5111794;28;20442;-73
2023/04/27 05:59:04;;;;;;;21.67;10.73;;;7.40;45.10;;;;;;5112465;28;20426;-72
2023/04/27 06:01:29;;;;;;;23.33;11.38;;;7.50;43.00;;;;;;5111082;28;20467;-74
2023/04/27 06:04:00;;;;;;;20.15;10.88;;;7.60;42.10;;;;;;5111904;28;20491;-73
2023/04/27 06:06:26;;;;;;;23.92;10.35;;;7.70;39.40;;;;;;5096822;28;20897;-73
2023/04/27 06:08:52;;;;;;;22.25;10.85;;;7.80;39.10;;;;;;5123929;28;20441;-73
2023/04/27 06:11:17;;;;;;;21.65;10.88;;;7.80;39.60;;;;;;5119021;28;20444;-73
2023/04/27 06:13:43;;;;;;;22.33;10.65;;;7.70;41.50;;;;;;5094065;28;20392;-73
2023/04/27 06:16:08;;;;;;;25.70;13.93;;;7.90;38.90;;;;;;5109930;28;20400;-73
2023/04/27 06:18:34;;;;;;;21.60;11.20;;;7.80;41.70;;;;;;5110555;28;20392;-71
2023/04/27 06:21:00;;;;;;;22.30;11.52;;;7.80;39.50;;;;;;5110020;28;20396;-71
2023/04/27 06:23:26;;;;;;;24.43;11.17;;;7.80;41.30;;;;;;5111229;28;20400;-74
2023/04/27 06:25:52;;;;;;;20.20;10.30;;;7.90;42.90;;;;;;5111291;28;20380;-72
2023/04/27 06:28:17;;;;;;;22.58;10.90;;;8.20;38.10;;;;;;5111163;28;20373;-73
2023/04/27 06:30:43;;;;;;;16.30;10.10;;;8.30;38.00;;;;;;5107062;28;20451;-73
2023/04/27 06:33:08;;;;;;;23.90;11.40;;;8.30;36.50;;;;;;5082241;28;20395;-74
2023/04/27 06:35:34;;;;;;;20.92;11.23;;;8.40;36.00;;;;;;5113164;28;20419;-74
2023/04/27 06:37:59;;;;;;;17.88;10.90;;;8.50;35.50;;;;;;5114385;28;20958;-75
2023/04/27 06:40:25;;;;;;;22.02;10.55;;;8.60;35.10;;;;;;5113277;28;20384;-74
2023/04/27 06:42:51;;;;;;;22.90;11.05;;;8.70;35.10;;;;;;5113153;28;20440;-75
2023/04/27 06:45:17;;;;;;;18.50;9.95;;;8.80;35.60;;;;;;5113007;28;20388;-73
2023/04/27 06:47:43;;;;;;;18.98;9.73;;;8.90;33.10;;;;;;5115513;28;20468;-75
2023/04/27 06:50:09;;;;;;;17.77;9.05;;;8.90;32.00;;;;;;5124177;28;20851;-74
2023/04/27 06:52:34;;;;;;;18.98;9.15;;;8.90;31.80;;;;;;5114678;28;20457;-72
2023/04/27 06:55:00;;;;;;;25.83;9.90;;;8.80;32.00;;;;;;5112416;28;20404;-76
2023/04/27 06:57:26;;;;;;;18.27;10.60;;;8.80;32.70;;;;;;5117680;28;20518;-74
2023/04/27 06:59:52;;;;;;;22.67;11.38;;;8.90;33.50;;;;;;5117306;28;20376;-72
2023/04/27 07:02:17;;;;;;;21.60;10.53;;;9.10;32.10;;;;;;5118461;28;20399;-73
2023/04/27 07:04:43;;;;;;;21.43;9.47;;;9.20;33.00;;;;;;5101453;28;20388;-73
2023/04/27 07:07:09;;;;;;;24.27;10.40;;;9.30;32.60;;;;;;5099389;28;20417;-75
2023/04/27 07:09:34;;;;;;;21.00;10.30;;;9.40;29.90;;;;;;5102872;28;20387;-73
2023/04/27 07:12:00;;;;;;;18.33;9.83;;;9.40;30.40;;;;;;5118429;28;20392;-74
2023/04/27 07:14:26;;;;;;;18.20;9.53;;;9.40;31.10;;;;;;5097725;28;20411;-73
2023/04/27 07:16:51;;;;;;;17.27;9.50;;;9.70;29.90;;;;;;5116293;28;20380;-73
2023/04/27 07:19:17;;;;;;;20.23;9.40;;;9.80;29.80;;;;;;5117428;28;20447;-75
2023/04/27 07:21:42;;;;;;;22.42;10.27;;;9.90;27.20;;;;;;5114479;28;20756;-74
2023/04/27 07:24:08;;;;;;;16.67;8.80;;;9.90;26.40;;;;;;5114791;28;20437;-74
2023/04/27 07:26:35;;;;;;;18.23;10.00;;;10.00;25.80;;;;;;5111616;28;20386;-73
2023/04/27 07:29:00;;;;;;;20.85;9.60;;;10.00;26.30;;;;;;5108847;28;20379;-74
2023/04/27 07:31:26;;;;;;;19.67;9.20;;;9.90;27.00;;;;;;5113666;28;20460;-75
2023/04/27 07:33:52;;;;;;;15.82;8.32;;;10.00;25.70;;;;;;5113415;28;20438;-74
2023/04/27 07:36:18;;;;;;;15.33;8.40;;;10.10;24.20;;;;;;5113541;28;20937;-73
2023/04/27 07:38:44;;;;;;;23.83;9.50;;;10.00;23.20;;;;;;5113647;28;20873;-73
2023/04/27 07:41:10;;;;;;;24.20;8.70;;;10.00;23.80;;;;;;5113013;28;20420;-73
2023/04/27 07:43:35;;;;;;;17.07;8.50;;;10.00;24.30;;;;;;5113173;28;20769;-73
2023/04/27 07:46:02;;;;;;;18.40;9.67;;;10.10;24.50;;;;;;5113277;28;20385;-74
2023/04/27 07:48:27;;;;;;;22.98;9.05;;;10.20;24.20;;;;;;5113739;28;20730;-72
2023/04/27 07:50:53;;;;;;;18.40;10.17;;;10.20;22.90;;;;;;5113045;28;20450;-75
2023/04/27 07:53:19;;;;;;;17.97;8.90;;;10.30;23.90;;;;;;5113283;28;20380;-73
2023/04/27 07:55:45;;;;;;;16.10;8.43;;;10.30;24.70;;;;;;5095681;28;20399;-75
2023/04/27 07:58:11;;;;;;;16.40;8.88;;;10.40;23.10;;;;;;5114177;28;20790;-74
2023/04/27 08:00:36;;;;;;;13.15;8.10;;;10.40;22.70;;;;;;5095443;28;20396;-74
2023/04/27 08:03:02;;;;;;;18.00;9.18;;;10.50;22.40;;;;;;5113362;28;20419;-74
2023/04/27 08:05:28;;;;;;;18.65;8.05;;;10.60;22.50;;;;;;5113679;28;20412;-74
2023/04/27 08:07:53;;;;;;;19.88;8.40;;;10.80;19.90;;;;;;5114096;28;20376;-75
2023/04/27 08:10:19;;;;;;;17.67;9.82;;;10.80;19.70;;;;;;5113503;28;20380;-75
2023/04/27 08:12:45;;;;;;;17.63;8.83;;;10.80;21.10;;;;;;5112987;28;20535;-75
2023/04/27 08:15:10;;;;;;;17.33;8.00;;;10.90;19.70;;;;;;5114658;28;20388;-74
2023/04/27 08:17:39;;;;;;;19.73;9.10;;;10.90;18.80;;;;;;5115385;28;20931;-74
2023/04/27 08:20:05;;;;;;;17.60;9.45;;;10.90;20.00;;;;;;5115143;28;20380;-75
2023/04/27 08:22:31;;;;;;;19.67;9.40;;;11.00;20.00;;;;;;5095697;28;20392;-75
2023/04/27 08:24:56;;;;;;;15.50;9.13;;;11.20;19.50;;;;;;5113921;28;20468;-75
2023/04/27 08:27:22;;;;;;;18.13;9.25;;;11.30;19.70;;;;;;5094843;28;20885;-73
2023/04/27 08:29:48;;;;;;;22.05;9.40;;;11.40;19.20;;;;;;5112627;28;20376;-74
2023/04/27 08:32:14;;;;;;;15.48;8.30;;;11.50;19.10;;;;;;5111966;28;20381;-74
2023/04/27 08:34:40;;;;;;;21.75;8.60;;;11.50;18.30;;;;;;5112439;28;20475;-74
2023/04/27 08:37:06;;;;;;;15.25;9.18;;;11.50;18.10;;;;;;5112330;28;20403;-75
2023/04/27 08:39:32;;;;;;;17.30;9.15;;;11.50;18.30;;;;;;5111932;28;20380;-74
2023/04/27 08:41:57;;;;;;;14.90;9.20;;;11.70;18.20;;;;;;5093407;28;20925;-75
2023/04/27 08:44:23;;;;;;;17.10;7.88;;;11.90;17.30;;;;;;5112141;28;20478;-74
2023/04/27 08:46:50;;;;;;;16.00;7.90;;;12.00;16.60;;;;;;5112297;28;20416;-74
2023/04/27 08:49:15;;;;;;;14.20;8.52;;;12.20;15.40;;;;;;5112110;28;20456;-74
2023/04/27 08:51:41;;;;;;;27.33;12.43;;;12.40;15.50;;;;;;5111333;28;20470;-74
2023/04/27 08:54:07;;;;;;;17.10;8.90;;;12.70;15.60;;;;;;5112333;28;20437;-75
2023/04/27 08:56:33;;;;;;;15.40;8.20;;;12.80;14.70;;;;;;5112408;28;20391;-75
2023/04/27 08:59:01;;;;;;;15.07;7.73;;;13.00;14.90;;;;;;5093799;28;20419;-75
2023/04/27 09:01:26;;;;;;;14.93;8.00;;;12.80;12.50;;;;;;5111435;28;20509;-74
2023/04/27 09:03:56;;;;;;;19.87;8.80;;;12.80;14.70;;;;;;5111674;28;20483;-74
2023/04/27 09:06:34;;;;;;;18.67;8.25;;;12.90;14.50;;;;;;5111183;28;21412;-74
2023/04/27 09:09:01;;;;;;;16.00;8.80;;;13.00;13.90;;;;;;5112305;28;20388;-75
2023/04/27 09:11:32;;;;;;;13.88;8.00;;;13.00;14.00;;;;;;5111073;28;21024;-75
2023/04/27 09:14:15;;;;;;;13.18;6.90;;;13.20;12.90;;;;;;5112202;28;20396;-74
2023/04/27 09:16:41;;;;;;;14.23;7.72;;;13.40;12.20;;;;;;5112405;28;20916;-74
2023/04/27 09:19:07;;;;;;;15.65;7.90;;;13.60;11.90;;;;;;5112683;28;20408;-74
2023/04/27 09:21:33;;;;;;;14.53;7.60;;;13.60;10.70;;;;;;5113020;28;20383;-74
2023/04/27 09:24:09;;;;;;;19.30;8.07;;;13.40;12.10;;;;;;5113389;28;20425;-74
2023/04/27 09:26:36;;;;;;;14.90;7.88;;;13.30;11.90;;;;;;5111676;28;20390;-75
2023/04/27 09:29:01;;;;;;;13.73;7.87;;;13.10;11.80;;;;;;5094913;28;20908;-74
2023/04/27 09:31:34;;;;;;;17.63;7.00;;;13.20;12.20;;;;;;5111874;28;20368;-75
2023/04/27 09:34:01;;;;;;;13.05;7.25;;;13.40;11.90;;;;;;5112068;28;20887;-74
2023/04/27 09:36:27;;;;;;;12.30;6.07;;;13.40;10.90;;;;;;5112436;28;20384;-75
2023/04/27 09:38:52;;;;;;;11.27;7.27;;;13.60;10.50;;;;;;5111985;28;20749;-74
2023/04/27 09:41:19;;;;;;;15.30;8.53;;;13.80;10.40;;;;;;5111170;28;21091;-75
2023/04/27 09:43:46;;;;;;;13.85;7.85;;;13.80;11.40;;;;;;5112604;28;20407;-74
2023/04/27 09:46:12;;;;;;;12.32;7.50;;;13.80;11.30;;;;;;5112629;28;20402;-73
2023/04/27 09:48:39;;;;;;;14.55;8.80;;;14.00;10.50;;;;;;5094735;28;20848;-74
2023/04/27 09:51:05;;;;;;;17.65;7.40;;;14.00;10.40;;;;;;5112201;28;20376;-74
2023/04/27 09:53:48;;;;;;;11.00;7.20;;;14.20;9.50;;;;;;5112272;28;20380;-74
2023/04/27 09:56:43;;;;;;;16.10;8.38;;;14.00;8.90;;;;;;5112543;28;20376;-74
2023/04/27 09:59:31;;;;;;;17.13;8.10;;;14.10;10.00;;;;;;5113329;28;20387;-74
2023/04/27 10:01:59;;;;;;;12.38;7.07;;;14.70;10.00;;;;;;5114545;28;20474;-74
2023/04/27 10:04:47;;;;;;;14.02;8.07;;;14.90;8.00;;;;;;5096430;28;20384;-75
2023/04/27 10:07:14;;;;;;;14.43;7.22;;;15.00;7.00;;;;;;5119132;28;20387;-76
2023/04/27 10:09:41;;;;;;;9.73;6.60;;;15.10;7.20;;;;;;5121379;28;20752;-74
2023/04/27 10:12:27;;;;;;;11.48;7.40;;;15.10;6.60;;;;;;5120112;28;20448;-76
2023/04/27 10:15:09;;;;;;;13.73;7.13;;;15.40;7.30;;;;;;5125549;28;20437;-74
2023/04/27 10:17:35;;;;;;;13.80;8.10;;;15.50;7.30;;;;;;5128564;28;20421;-75
2023/04/27 10:20:02;;;;;;;14.32;7.38;;;15.10;7.50;;;;;;5124471;28;20444;-75
2023/04/27 10:22:43;;;;;;;13.38;7.20;;;15.20;8.00;;;;;;5094518;28;20396;-74
2023/04/27 10:25:20;;;;;;;18.48;7.82;;;15.50;7.20;;;;;;5114804;28;20396;-75
2023/04/27 10:27:51;;;;;;;12.70;8.07;;;15.70;7.00;;;;;;5100692;28;20745;-75
2023/04/27 10:30:19;;;;;;;17.70;8.80;;;15.70;6.80;;;;;;5117580;28;20380;-75
2023/04/27 10:32:56;;;;;;;13.97;8.20;;;15.70;7.40;;;;;;5132852;28;20391;-74
2023/04/27 10:35:39;;;;;;;14.80;8.50;;;16.20;6.90;;;;;;5133323;28;20402;-74
2023/04/27 10:38:07;;;;;;;13.90;8.52;;;16.20;7.20;;;;;;5125920;28;20388;-75
2023/04/27 10:40:34;;;;;;;15.20;8.50;;;16.30;5.80;;;;;;5119902;28;20853;-76
2023/04/27 10:43:14;;;;;;;17.52;9.10;;;16.10;6.80;;;;;;5116409;28;20404;-74
2023/04/27 10:45:41;;;;;;;16.38;8.40;;;16.10;6.10;;;;;;5115727;28;20372;-75
2023/04/27 10:48:07;;;;;;;13.07;8.00;;;16.00;5.80;;;;;;5116226;28;20388;-74
2023/04/27 10:50:33;;;;;;;21.15;9.00;;;15.90;6.60;;;;;;5097005;28;20736;-74
2023/04/27 10:53:02;;;;;;;12.05;8.25;;;16.10;7.00;;;;;;5115760;28;20781;-73
2023/04/27 10:55:29;;;;;;;13.93;8.33;;;16.60;6.00;;;;;;5115626;28;20408;-74
2023/04/27 10:57:55;;;;;;;11.48;7.22;;;16.40;5.90;;;;;;5115154;28;20376;-73
2023/04/27 11:00:25;;;;;;;12.88;8.43;;;16.40;6.00;;;;;;5115073;28;20380;-75
2023/04/27 11:02:52;;;;;;;12.48;7.75;;;16.20;6.70;;;;;;5114949;28;20395;-74
2023/04/27 11:05:32;;;;;;;15.23;8.10;;;16.10;6.20;;;;;;5115682;28;20433;-75
2023/04/27 11:08:10;;;;;;;13.35;7.88;;;15.90;6.10;;;;;;5116191;28;20380;-74
2023/04/27 11:10:49;;;;;;;12.50;7.82;;;15.50;6.20;;;;;;5121248;28;20907;-75
2023/04/27 11:13:25;;;;;;;15.98;7.80;;;15.30;6.30;;;;;;5125258;28;20377;-74
2023/04/27 11:15:53;;;;;;;18.58;8.52;;;15.00;7.30;;;;;;5120864;28;20434;-75
2023/04/27 11:18:21;;;;;;;18.08;8.18;;;15.10;8.10;;;;;;5124874;28;20753;-75
2023/04/27 11:20:49;;;;;;;15.23;8.02;;;15.30;7.40;;;;;;5119572;28;20900;-74
2023/04/27 11:23:37;;;;;;;17.40;9.30;;;15.30;6.70;;;;;;5097402;28;20861;-75
2023/04/27 11:26:14;;;;;;;16.85;7.70;;;15.30;8.20;;;;;;5115442;28;20391;-75
2023/04/27 11:28:55;;;;;;;16.92;8.00;;;15.30;7.10;;;;;;5115838;28;20480;-75
2023/04/27 11:31:21;;;;;;;12.70;7.57;;;14.90;6.90;;;;;;5113287;28;20928;-75
2023/04/27 11:33:48;;;;;;;20.00;7.85;;;14.60;7.80;;;;;;5120003;28;20434;-75
2023/04/27 11:36:22;;;;;;;14.55;8.00;;;14.60;7.50;;;;;;5101120;28;20383;-74
2023/04/27 11:38:48;;;;;;;15.35;7.78;;;14.60;8.00;;;;;;5115189;28;20475;-74
2023/04/27 11:41:14;;;;;;;17.75;7.55;;;14.70;8.60;;;;;;5095494;28;20624;-74
2023/04/27 11:43:42;;;;;;;14.90;8.70;;;14.80;7.70;;;;;;5115281;28;20396;-74
2023/04/27 11:46:09;;;;;;;14.02;8.05;;;14.80;7.40;;;;;;5116746;28;20459;-74
2023/04/27 11:48:38;;;;;;;15.95;7.90;;;14.70;7.30;;;;;;5097023;28;20405;-76
2023/04/27 11:51:05;;;;;;;18.35;8.50;;;14.70;8.40;;;;;;5114622;28;20384;-74
2023/04/27 11:53:32;;;;;;;16.00;8.57;;;14.60;9.40;;;;;;5116998;28;20384;-74
2023/04/27 11:56:04;;;;;;;19.20;9.98;;;14.80;8.70;;;;;;5118083;28;20384;-74
2023/04/27 11:58:32;;;;;;;19.30;8.60;;;14.70;8.50;;;;;;5118185;28;20789;-75
2023/04/27 12:00:58;;;;;;;15.77;9.00;;;14.60;8.50;;;;;;5117679;28;20425;-73
2023/04/27 12:03:24;;;;;;;17.87;9.20;;;14.90;9.60;;;;;;5115354;28;20400;-74
2023/04/27 12:05:51;;;;;;;14.80;8.50;;;15.00;8.20;;;;;;5115541;28;20392;-74
2023/04/27 12:08:17;;;;;;;12.13;7.75;;;15.10;8.40;;;;;;5115040;28;20445;-75
2023/04/27 12:10:44;;;;;;;15.68;8.40;;;15.40;7.60;;;;;;5114520;28;20835;-75
2023/04/27 12:13:11;;;;;;;15.43;8.93;;;15.60;8.90;;;;;;5112184;28;20460;-75
2023/04/27 12:15:37;;;;;;;18.02;8.85;;;15.90;7.50;;;;;;5115072;28;20492;-74
2023/04/27 12:18:02;;;;;;;15.65;8.30;;;15.70;6.40;;;;;;5114796;28;20471;-74
2023/04/27 12:20:28;;;;;;;16.07;9.50;;;15.90;7.70;;;;;;5114736;28;20469;-74
2023/04/27 12:22:53;;;;;;;17.77;9.95;;;16.00;6.80;;;;;;5095453;28;20404;-74
2023/04/27 12:25:20;;;;;;;25.88;9.88;;;16.20;7.10;;;;;;5114980;28;20938;-74
2023/04/27 12:27:46;;;;;;;21.30;9.15;;;16.10;5.30;;;;;;5114764;28;20714;-74
2023/04/27 12:30:13;;;;;;;14.57;8.27;;;16.20;6.40;;;;;;5096106;28;20424;-74
2023/04/27 12:32:39;;;;;;;17.67;8.40;;;16.20;4.80;;;;;;5113221;28;20403;-73
2023/04/27 12:35:06;;;;;;;14.18;8.02;;;16.40;4.50;;;;;;5112403;28;20836;-74
2023/04/27 12:37:33;;;;;;;15.52;8.30;;;16.30;4.80;;;;;;5114234;28;20392;-74
2023/04/27 12:39:58;;;;;;;17.45;8.05;;;16.40;4.90;;;;;;5115051;28;20425;-74